sensor_id;sensor_type;location;lat;lon;timestamp;pressure;altitude;pressure_sealevel;temperature;humidity
43364;BME280;40636;52.424;-1.948;2023-02-10T00:01:26;101927.72;;;-0.62;100.00
43364;BME280;40636;52.424;-1.948;2023-02-10T00:03:54;101929.34;;;-0.71;100.00
43364;BME280;40636;52.424;-1.948;2023-02-10T00:06:22;101926.44;;;-0.79;100.00
43364;BME280;40636;52.424;-1.948;2023-02-10T00:08:55;101925.72;;;-0.81;100.00
43364;BME280;40636;52.424;-1.948;2023-02-10T00:11:23;101926.69;;;-0.82;100.00
43364;BME280;40636;52.424;-1.948;2023-02-10T00:14:12;101928.41;;;-0.81;100.00
43364;BME280;40636;52.424;-1.948;2023-02-10T00:16:39;101930.66;;;-0.86;100.00
43364;BME280;40636;52.424;-1.948;2023-02-10T00:19:06;101935.16;;;-0.87;100.00
43364;BME280;40636;52.424;-1.948;2023-02-10T00:21:33;101924.50;;;-0.77;100.00
43364;BME280;40636;52.424;-1.948;2023-02-10T00:24:00;101924.50;;;-0.77;100.00
43364;BME280;40636;52.424;-1.948;2023-02-10T00:26:26;101924.81;;;-0.70;100.00
43364;BME280;40636;52.424;-1.948;2023-02-10T00:28:53;101925.91;;;-0.73;100.00
43364;BME280;40636;52.424;-1.948;2023-02-10T00:31:20;101922.75;;;-0.78;100.00
43364;BME280;40636;52.424;-1.948;2023-02-10T00:33:48;101916.19;;;-0.85;100.00
43364;BME280;40636;52.424;-1.948;2023-02-10T00:36:15;101911.66;;;-0.85;100.00
43364;BME280;40636;52.424;-1.948;2023-02-10T00:38:42;101921.28;;;-0.82;100.00
43364;BME280;40636;52.424;-1.948;2023-02-10T00:41:14;101917.03;;;-0.85;100.00
43364;BME280;40636;52.424;-1.948;2023-02-10T00:43:41;101917.66;;;-0.92;100.00
43364;BME280;40636;52.424;-1.948;2023-02-10T00:46:11;101912.03;;;-0.89;100.00
43364;BME280;40636;52.424;-1.948;2023-02-10T00:48:42;101922.06;;;-0.91;100.00
43364;BME280;40636;52.424;-1.948;2023-02-10T00:51:09;101923.91;;;-0.92;100.00
43364;BME280;40636;52.424;-1.948;2023-02-10T00:53:36;101923.66;;;-0.89;100.00
43364;BME280;40636;52.424;-1.948;2023-02-10T00:56:03;101925.88;;;-0.94;100.00
43364;BME280;40636;52.424;-1.948;2023-02-10T00:58:31;101925.03;;;-0.94;100.00
43364;BME280;40636;52.424;-1.948;2023-02-10T01:00:57;101926.16;;;-1.08;100.00
43364;BME280;40636;52.424;-1.948;2023-02-10T01:03:25;101921.50;;;-1.06;100.00
43364;BME280;40636;52.424;-1.948;2023-02-10T01:05:51;101926.75;;;-1.05;100.00
43364;BME280;40636;52.424;-1.948;2023-02-10T01:08:19;101931.66;;;-1.10;100.00
43364;BME280;40636;52.424;-1.948;2023-02-10T01:10:45;101921.63;;;-1.08;100.00
43364;BME280;40636;52.424;-1.948;2023-02-10T01:13:14;101928.72;;;-1.07;100.00
43364;BME280;40636;52.424;-1.948;2023-02-10T01:15:43;101915.13;;;-1.05;100.00
43364;BME280;40636;52.424;-1.948;2023-02-10T01:18:11;101914.53;;;-1.09;100.00
43364;BME280;40636;52.424;-1.948;2023-02-10T01:20:40;101914.03;;;-1.14;100.00
43364;BME280;40636;52.424;-1.948;2023-02-10T01:23:08;101918.94;;;-1.08;100.00
43364;BME280;40636;52.424;-1.948;2023-02-10T01:25:36;101921.16;;;-1.13;100.00
43364;BME280;40636;52.424;-1.948;2023-02-10T01:28:04;101926.94;;;-1.17;100.00
43364;BME280;40636;52.424;-1.948;2023-02-10T01:30:31;101933.88;;;-1.15;100.00
43364;BME280;40636;52.424;-1.948;2023-02-10T01:32:58;101937.47;;;-1.25;100.00
43364;BME280;40636;52.424;-1.948;2023-02-10T01:35:24;101940.16;;;-1.37;100.00
43364;BME280;40636;52.424;-1.948;2023-02-10T01:37:51;101939.06;;;-1.34;100.00
43364;BME280;40636;52.424;-1.948;2023-02-10T01:40:18;101933.69;;;-1.34;100.00
43364;BME280;40636;52.424;-1.948;2023-02-10T01:42:44;101938.34;;;-1.36;100.00
43364;BME280;40636;52.424;-1.948;2023-02-10T01:45:22;101934.06;;;-1.39;100.00
43364;BME280;40636;52.424;-1.948;2023-02-10T01:47:51;101933.69;;;-1.34;100.00
43364;BME280;40636;52.424;-1.948;2023-02-10T01:50:22;101934.78;;;-1.25;100.00
43364;BME280;40636;52.424;-1.948;2023-02-10T01:52:49;101928.16;;;-1.33;100.00
43364;BME280;40636;52.424;-1.948;2023-02-10T01:55:18;101934.91;;;-1.27;100.00
43364;BME280;40636;52.424;-1.948;2023-02-10T01:57:48;101926.44;;;-1.34;100.00
43364;BME280;40636;52.424;-1.948;2023-02-10T02:00:21;101924.38;;;-1.30;100.00
43364;BME280;40636;52.424;-1.948;2023-02-10T02:02:48;101923.63;;;-1.32;100.00
43364;BME280;40636;52.424;-1.948;2023-02-10T02:05:33;101928.16;;;-1.33;100.00
43364;BME280;40636;52.424;-1.948;2023-02-10T02:16:38;101919.47;;;-1.25;100.00
43364;BME280;40636;52.424;-1.948;2023-02-10T02:24:45;101917.75;;;-1.37;100.00
43364;BME280;40636;52.424;-1.948;2023-02-10T02:27:18;101912.00;;;-1.33;100.00
43364;BME280;40636;52.424;-1.948;2023-02-10T02:32:54;101909.78;;;-1.28;100.00
43364;BME280;40636;52.424;-1.948;2023-02-10T02:35:26;101905.53;;;-1.30;100.00
43364;BME280;40636;52.424;-1.948;2023-02-10T02:37:54;101924.09;;;-1.16;100.00
43364;BME280;40636;52.424;-1.948;2023-02-10T02:40:22;101912.81;;;-1.10;100.00
43364;BME280;40636;52.424;-1.948;2023-02-10T02:42:48;101921.38;;;-1.05;100.00
43364;BME280;40636;52.424;-1.948;2023-02-10T02:45:21;101919.44;;;-1.14;100.00
43364;BME280;40636;52.424;-1.948;2023-02-10T02:48:03;101905.09;;;-1.14;100.00
43364;BME280;40636;52.424;-1.948;2023-02-10T02:56:06;101916.25;;;-1.19;100.00
43364;BME280;40636;52.424;-1.948;2023-02-10T02:58:55;101900.84;;;-1.17;100.00
43364;BME280;40636;52.424;-1.948;2023-02-10T03:01:47;101896.63;;;-1.10;100.00
43364;BME280;40636;52.424;-1.948;2023-02-10T03:04:16;101893.22;;;-1.12;100.00
43364;BME280;40636;52.424;-1.948;2023-02-10T03:06:43;101884.91;;;-1.20;100.00
43364;BME280;40636;52.424;-1.948;2023-02-10T03:09:10;101881.50;;;-1.22;100.00
43364;BME280;40636;52.424;-1.948;2023-02-10T03:11:37;101869.88;;;-1.22;100.00
43364;BME280;40636;52.424;-1.948;2023-02-10T03:14:04;101855.69;;;-1.24;100.00
43364;BME280;40636;52.424;-1.948;2023-02-10T03:16:30;101854.81;;;-1.25;100.00
43364;BME280;40636;52.424;-1.948;2023-02-10T03:18:57;101850.53;;;-1.28;100.00
43364;BME280;40636;52.424;-1.948;2023-02-10T03:21:24;101858.03;;;-1.31;100.00
43364;BME280;40636;52.424;-1.948;2023-02-10T03:23:52;101848.22;;;-1.32;100.00
43364;BME280;40636;52.424;-1.948;2023-02-10T03:26:18;101844.56;;;-1.31;100.00
43364;BME280;40636;52.424;-1.948;2023-02-10T03:28:45;101849.19;;;-1.22;100.00
43364;BME280;40636;52.424;-1.948;2023-02-10T03:31:12;101846.13;;;-1.17;100.00
43364;BME280;40636;52.424;-1.948;2023-02-10T03:33:39;101842.75;;;-1.10;100.00
43364;BME280;40636;52.424;-1.948;2023-02-10T03:36:05;101842.59;;;-0.97;100.00
43364;BME280;40636;52.424;-1.948;2023-02-10T03:38:32;101840.44;;;-0.82;100.00
43364;BME280;40636;52.424;-1.948;2023-02-10T03:40:59;101843.53;;;-0.87;100.00
43364;BME280;40636;52.424;-1.948;2023-02-10T03:43:25;101833.34;;;-0.83;100.00
43364;BME280;40636;52.424;-1.948;2023-02-10T03:45:52;101832.88;;;-0.88;100.00
43364;BME280;40636;52.424;-1.948;2023-02-10T03:48:19;101833.63;;;-0.86;100.00
43364;BME280;40636;52.424;-1.948;2023-02-10T03:50:47;101829.53;;;-0.81;100.00
43364;BME280;40636;52.424;-1.948;2023-02-10T03:53:14;101824.88;;;-0.79;100.00
43364;BME280;40636;52.424;-1.948;2023-02-10T03:55:41;101816.38;;;-0.74;100.00
43364;BME280;40636;52.424;-1.948;2023-02-10T03:58:07;101816.44;;;-0.64;100.00
43364;BME280;40636;52.424;-1.948;2023-02-10T04:00:34;101822.19;;;-0.58;100.00
43364;BME280;40636;52.424;-1.948;2023-02-10T04:03:00;101827.63;;;-0.48;100.00
43364;BME280;40636;52.424;-1.948;2023-02-10T04:05:27;101816.84;;;-0.48;100.00
43364;BME280;40636;52.424;-1.948;2023-02-10T04:07:54;101813.97;;;-0.56;100.00
43364;BME280;40636;52.424;-1.948;2023-02-10T04:10:21;101807.72;;;-0.57;100.00
43364;BME280;40636;52.424;-1.948;2023-02-10T04:12:48;101805.72;;;-0.55;100.00
43364;BME280;40636;52.424;-1.948;2023-02-10T04:15:15;101803.22;;;-0.46;100.00
43364;BME280;40636;52.424;-1.948;2023-02-10T04:17:42;101799.63;;;-0.36;100.00
43364;BME280;40636;52.424;-1.948;2023-02-10T04:20:09;101793.41;;;-0.27;100.00
43364;BME280;40636;52.424;-1.948;2023-02-10T04:22:36;101796.84;;;-0.15;100.00
43364;BME280;40636;52.424;-1.948;2023-02-10T04:25:04;101787.25;;;-0.08;100.00
43364;BME280;40636;52.424;-1.948;2023-02-10T04:27:31;101794.78;;;-0.02;100.00
43364;BME280;40636;52.424;-1.948;2023-02-10T04:29:58;101807.00;;;0.03;100.00
43364;BME280;40636;52.424;-1.948;2023-02-10T04:32:24;101806.34;;;0.10;100.00
43364;BME280;40636;52.424;-1.948;2023-02-10T04:34:51;101805.06;;;0.14;100.00
43364;BME280;40636;52.424;-1.948;2023-02-10T04:37:18;101802.09;;;0.17;100.00
43364;BME280;40636;52.424;-1.948;2023-02-10T04:39:45;101810.91;;;0.19;100.00
43364;BME280;40636;52.424;-1.948;2023-02-10T04:42:11;101794.41;;;0.22;100.00
43364;BME280;40636;52.424;-1.948;2023-02-10T04:44:38;101799.69;;;0.24;100.00
43364;BME280;40636;52.424;-1.948;2023-02-10T04:47:05;101799.69;;;0.24;100.00
43364;BME280;40636;52.424;-1.948;2023-02-10T04:49:31;101802.25;;;0.25;100.00
43364;BME280;40636;52.424;-1.948;2023-02-10T04:51:58;101802.41;;;0.24;100.00
43364;BME280;40636;52.424;-1.948;2023-02-10T04:54:25;101799.13;;;0.20;100.00
43364;BME280;40636;52.424;-1.948;2023-02-10T04:56:51;101805.78;;;0.16;100.00
43364;BME280;40636;52.424;-1.948;2023-02-10T04:59:18;101797.81;;;0.15;100.00
43364;BME280;40636;52.424;-1.948;2023-02-10T05:01:44;101800.09;;;0.10;100.00
43364;BME280;40636;52.424;-1.948;2023-02-10T05:04:11;101806.59;;;0.07;100.00
43364;BME280;40636;52.424;-1.948;2023-02-10T05:06:38;101807.44;;;0.08;100.00
43364;BME280;40636;52.424;-1.948;2023-02-10T05:09:04;101810.03;;;0.09;100.00
43364;BME280;40636;52.424;-1.948;2023-02-10T05:11:31;101820.94;;;0.08;100.00
43364;BME280;40636;52.424;-1.948;2023-02-10T05:13:58;101820.25;;;0.06;100.00
43364;BME280;40636;52.424;-1.948;2023-02-10T05:16:25;101818.81;;;0.02;100.00
43364;BME280;40636;52.424;-1.948;2023-02-10T05:18:52;101815.97;;;0.03;100.00
43364;BME280;40636;52.424;-1.948;2023-02-10T05:21:18;101823.94;;;0.05;100.00
43364;BME280;40636;52.424;-1.948;2023-02-10T05:23:45;101819.06;;;-0.02;100.00
43364;BME280;40636;52.424;-1.948;2023-02-10T05:26:12;101809.41;;;-0.04;100.00
43364;BME280;40636;52.424;-1.948;2023-02-10T05:28:38;101804.28;;;-0.07;100.00
43364;BME280;40636;52.424;-1.948;2023-02-10T05:31:05;101794.88;;;-0.13;100.00
43364;BME280;40636;52.424;-1.948;2023-02-10T05:33:33;101785.81;;;-0.12;100.00
43364;BME280;40636;52.424;-1.948;2023-02-10T05:36:00;101783.09;;;-0.12;100.00
43364;BME280;40636;52.424;-1.948;2023-02-10T05:38:29;101788.91;;;-0.16;100.00
43364;BME280;40636;52.424;-1.948;2023-02-10T05:40:55;101789.16;;;-0.19;100.00
43364;BME280;40636;52.424;-1.948;2023-02-10T05:43:22;101789.91;;;-0.17;100.00
43364;BME280;40636;52.424;-1.948;2023-02-10T05:45:50;101798.56;;;-0.14;100.00
43364;BME280;40636;52.424;-1.948;2023-02-10T05:48:17;101792.63;;;-0.08;100.00
43364;BME280;40636;52.424;-1.948;2023-02-10T05:50:44;101789.94;;;-0.08;100.00
43364;BME280;40636;52.424;-1.948;2023-02-10T05:53:11;101787.25;;;-0.08;100.00
43364;BME280;40636;52.424;-1.948;2023-02-10T05:55:39;101802.03;;;-0.02;100.00
43364;BME280;40636;52.424;-1.948;2023-02-10T05:58:06;101792.91;;;-0.11;100.00
43364;BME280;40636;52.424;-1.948;2023-02-10T06:00:33;101800.00;;;-0.10;100.00
43364;BME280;40636;52.424;-1.948;2023-02-10T06:02:59;101796.16;;;-0.17;100.00
43364;BME280;40636;52.424;-1.948;2023-02-10T06:05:26;101793.41;;;-0.27;100.00
43364;BME280;40636;52.424;-1.948;2023-02-10T06:07:53;101800.06;;;-0.31;100.00
43364;BME280;40636;52.424;-1.948;2023-02-10T06:10:21;101805.00;;;-0.36;100.00
43364;BME280;40636;52.424;-1.948;2023-02-10T06:12:49;101785.69;;;-0.41;100.00
43364;BME280;40636;52.424;-1.948;2023-02-10T06:15:15;101789.94;;;-0.38;100.00
43364;BME280;40636;52.424;-1.948;2023-02-10T06:17:43;101791.31;;;-0.44;100.00
43364;BME280;40636;52.424;-1.948;2023-02-10T06:20:11;101789.88;;;-0.48;100.00
43364;BME280;40636;52.424;-1.948;2023-02-10T06:22:38;101802.97;;;-0.43;100.00
43364;BME280;40636;52.424;-1.948;2023-02-10T06:25:05;101802.56;;;-0.39;100.00
43364;BME280;40636;52.424;-1.948;2023-02-10T06:27:31;101796.63;;;-0.33;100.00
43364;BME280;40636;52.424;-1.948;2023-02-10T06:29:58;101791.16;;;-0.21;100.00
43364;BME280;40636;52.424;-1.948;2023-02-10T06:32:25;101783.66;;;-0.18;100.00
43364;BME280;40636;52.424;-1.948;2023-02-10T06:34:51;101774.41;;;-0.15;100.00
43364;BME280;40636;52.424;-1.948;2023-02-10T06:37:18;101770.47;;;-0.11;100.00
43364;BME280;40636;52.424;-1.948;2023-02-10T06:39:46;101763.13;;;0.01;100.00
43364;BME280;40636;52.424;-1.948;2023-02-10T06:42:12;101771.09;;;0.12;100.00
43364;BME280;40636;52.424;-1.948;2023-02-10T06:44:39;101784.50;;;0.23;100.00
43364;BME280;40636;52.424;-1.948;2023-02-10T06:47:06;101795.19;;;0.34;100.00
43364;BME280;40636;52.424;-1.948;2023-02-10T06:49:33;101795.03;;;0.45;100.00
43364;BME280;40636;52.424;-1.948;2023-02-10T06:51:59;101794.25;;;0.55;100.00
43364;BME280;40636;52.424;-1.948;2023-02-10T06:54:26;101800.91;;;0.60;100.00
43364;BME280;40636;52.424;-1.948;2023-02-10T06:56:53;101797.50;;;0.68;100.00
43364;BME280;40636;52.424;-1.948;2023-02-10T06:59:20;101784.44;;;0.73;100.00
43364;BME280;40636;52.424;-1.948;2023-02-10T07:01:47;101778.88;;;0.74;100.00
43364;BME280;40636;52.424;-1.948;2023-02-10T07:04:14;101770.63;;;0.76;100.00
43364;BME280;40636;52.424;-1.948;2023-02-10T07:06:40;101759.53;;;0.79;100.00
43364;BME280;40636;52.424;-1.948;2023-02-10T07:09:07;101764.94;;;0.79;100.00
43364;BME280;40636;52.424;-1.948;2023-02-10T07:11:34;101780.88;;;0.82;100.00
43364;BME280;40636;52.424;-1.948;2023-02-10T07:14:01;101786.00;;;0.85;100.00
43364;BME280;40636;52.424;-1.948;2023-02-10T07:16:28;101790.13;;;0.89;100.00
43364;BME280;40636;52.424;-1.948;2023-02-10T07:18:57;101782.75;;;0.91;100.00
43364;BME280;40636;52.424;-1.948;2023-02-10T07:21:26;101788.84;;;0.93;100.00
43364;BME280;40636;52.424;-1.948;2023-02-10T07:23:53;101793.97;;;0.96;100.00
43364;BME280;40636;52.424;-1.948;2023-02-10T07:26:19;101784.59;;;1.00;100.00
43364;BME280;40636;52.424;-1.948;2023-02-10T07:28:46;101796.81;;;1.05;100.00
43364;BME280;40636;52.424;-1.948;2023-02-10T07:31:13;101799.22;;;1.08;100.00
43364;BME280;40636;52.424;-1.948;2023-02-10T07:33:40;101800.91;;;1.09;100.00
43364;BME280;40636;52.424;-1.948;2023-02-10T07:36:07;101798.22;;;1.09;100.00
43364;BME280;40636;52.424;-1.948;2023-02-10T07:38:35;101789.56;;;1.15;100.00
43364;BME280;40636;52.424;-1.948;2023-02-10T07:41:02;101797.06;;;1.21;100.00
43364;BME280;40636;52.424;-1.948;2023-02-10T07:43:29;101801.63;;;1.30;100.00
43364;BME280;40636;52.424;-1.948;2023-02-10T07:45:56;101812.41;;;1.40;100.00
43364;BME280;40636;52.424;-1.948;2023-02-10T07:48:23;101809.00;;;1.47;100.00
43364;BME280;40636;52.424;-1.948;2023-02-10T07:50:50;101814.13;;;1.50;100.00
43364;BME280;40636;52.424;-1.948;2023-02-10T07:53:20;101822.66;;;1.56;100.00
43364;BME280;40636;52.424;-1.948;2023-02-10T07:55:48;101823.06;;;1.61;100.00
43364;BME280;40636;52.424;-1.948;2023-02-10T07:58:15;101831.59;;;1.66;100.00
43364;BME280;40636;52.424;-1.948;2023-02-10T08:00:42;101829.59;;;1.68;100.00
43364;BME280;40636;52.424;-1.948;2023-02-10T08:03:15;101843.00;;;1.69;100.00
43364;BME280;40636;52.424;-1.948;2023-02-10T08:05:42;101837.41;;;1.71;100.00
43364;BME280;40636;52.424;-1.948;2023-02-10T08:08:09;101833.88;;;1.70;100.00
43364;BME280;40636;52.424;-1.948;2023-02-10T08:10:39;101843.56;;;1.73;100.00
43364;BME280;40636;52.424;-1.948;2023-02-10T08:13:06;101845.38;;;1.72;100.00
43364;BME280;40636;52.424;-1.948;2023-02-10T08:15:33;101845.25;;;1.74;100.00
43364;BME280;40636;52.424;-1.948;2023-02-10T08:18:00;101847.66;;;1.77;100.00
43364;BME280;40636;52.424;-1.948;2023-02-10T08:20:27;101850.22;;;1.78;100.00
43364;BME280;40636;52.424;-1.948;2023-02-10T08:22:57;101855.31;;;1.82;100.00
43364;BME280;40636;52.424;-1.948;2023-02-10T08:25:25;101855.03;;;1.85;100.00
43364;BME280;40636;52.424;-1.948;2023-02-10T08:27:51;101856.47;;;1.89;100.00
43364;BME280;40636;52.424;-1.948;2023-02-10T08:30:18;101861.88;;;1.89;100.00
43364;BME280;40636;52.424;-1.948;2023-02-10T08:32:45;101868.53;;;1.94;100.00
43364;BME280;40636;52.424;-1.948;2023-02-10T08:35:15;101859.53;;;2.03;100.00
43364;BME280;40636;52.424;-1.948;2023-02-10T08:37:42;101859.81;;;2.10;100.00
43364;BME280;40636;52.424;-1.948;2023-02-10T08:40:09;101868.91;;;2.19;100.00
43364;BME280;40636;52.424;-1.948;2023-02-10T08:42:36;101872.25;;;2.31;100.00
43364;BME280;40636;52.424;-1.948;2023-02-10T08:45:03;101869.50;;;2.40;100.00
43364;BME280;40636;52.424;-1.948;2023-02-10T08:47:29;101874.59;;;2.53;100.00
43364;BME280;40636;52.424;-1.948;2023-02-10T08:49:56;101865.88;;;2.59;100.00
43364;BME280;40636;52.424;-1.948;2023-02-10T08:52:23;101871.22;;;2.69;100.00
43364;BME280;40636;52.424;-1.948;2023-02-10T08:54:50;101871.63;;;2.74;100.00
43364;BME280;40636;52.424;-1.948;2023-02-10T08:57:17;101868.13;;;2.82;100.00
43364;BME280;40636;52.424;-1.948;2023-02-10T08:59:45;101862.13;;;2.88;100.00
43364;BME280;40636;52.424;-1.948;2023-02-10T09:02:12;101848.25;;;2.91;100.00
43364;BME280;40636;52.424;-1.948;2023-02-10T09:04:40;101849.25;;;2.90;100.00
43364;BME280;40636;52.424;-1.948;2023-02-10T09:07:07;101844.84;;;2.89;100.00
43364;BME280;40636;52.424;-1.948;2023-02-10T09:09:40;101842.28;;;2.87;100.00
43364;BME280;40636;52.424;-1.948;2023-02-10T09:12:09;101833.13;;;2.88;100.00
43364;BME280;40636;52.424;-1.948;2023-02-10T09:14:40;101841.66;;;2.93;100.00
43364;BME280;40636;52.424;-1.948;2023-02-10T09:17:10;101834.91;;;2.97;100.00
43364;BME280;40636;52.424;-1.948;2023-02-10T09:19:38;101839.03;;;3.01;100.00
43364;BME280;40636;52.424;-1.948;2023-02-10T09:22:05;101830.13;;;3.09;100.00
43364;BME280;40636;52.424;-1.948;2023-02-10T09:24:32;101824.53;;;3.11;100.00
43364;BME280;40636;52.424;-1.948;2023-02-10T09:26:59;101808.09;;;3.12;100.00
43364;BME280;40636;52.424;-1.948;2023-02-10T09:29:26;101827.09;;;3.12;100.00
43364;BME280;40636;52.424;-1.948;2023-02-10T09:31:53;101829.34;;;3.17;100.00
43364;BME280;40636;52.424;-1.948;2023-02-10T09:34:20;101829.97;;;3.28;100.00
43364;BME280;40636;52.424;-1.948;2023-02-10T09:36:46;101834.13;;;3.41;100.00
43364;BME280;40636;52.424;-1.948;2023-02-10T09:39:13;101828.59;;;3.50;100.00
43364;BME280;40636;52.424;-1.948;2023-02-10T09:41:52;101836.78;;;3.59;100.00
43364;BME280;40636;52.424;-1.948;2023-02-10T09:44:23;101839.03;;;3.63;100.00
43364;BME280;40636;52.424;-1.948;2023-02-10T09:47:52;101840.09;;;3.70;100.00
43364;BME280;40636;52.424;-1.948;2023-02-10T09:50:30;101840.31;;;3.77;100.00
43364;BME280;40636;52.424;-1.948;2023-02-10T09:53:16;101836.25;;;3.81;100.00
43364;BME280;40636;52.424;-1.948;2023-02-10T09:55:47;101842.94;;;3.87;100.00
43364;BME280;40636;52.424;-1.948;2023-02-10T09:58:17;101833.13;;;3.94;100.00
43364;BME280;40636;52.424;-1.948;2023-02-10T10:00:45;101828.72;;;3.93;100.00
43364;BME280;40636;52.424;-1.948;2023-02-10T10:03:17;101828.59;;;4.02;100.00
43364;BME280;40636;52.424;-1.948;2023-02-10T10:09:14;101826.69;;;4.29;100.00
43364;BME280;40636;52.424;-1.948;2023-02-10T10:14:35;101814.91;;;4.54;100.00
43364;BME280;40636;52.424;-1.948;2023-02-10T10:31:16;101802.75;;;5.16;100.00
43364;BME280;40636;52.424;-1.948;2023-02-10T10:36:29;101817.22;;;5.16;100.00
43364;BME280;40636;52.424;-1.948;2023-02-10T10:39:01;101816.38;;;5.16;100.00
43364;BME280;40636;52.424;-1.948;2023-02-10T10:41:32;101821.63;;;5.17;100.00
43364;BME280;40636;52.424;-1.948;2023-02-10T10:44:01;101828.44;;;5.13;100.00
43364;BME280;40636;52.424;-1.948;2023-02-10T10:46:35;101818.06;;;5.17;100.00
43364;BME280;40636;52.424;-1.948;2023-02-10T10:49:05;101811.97;;;5.23;100.00
43364;BME280;40636;52.424;-1.948;2023-02-10T10:51:32;101815.19;;;5.18;100.00
43364;BME280;40636;52.424;-1.948;2023-02-10T10:54:01;101822.66;;;5.16;100.00
43364;BME280;40636;52.424;-1.948;2023-02-10T10:56:40;101831.16;;;5.21;100.00
43364;BME280;40636;52.424;-1.948;2023-02-10T10:59:43;101824.22;;;5.27;100.00
43364;BME280;40636;52.424;-1.948;2023-02-10T11:02:17;101835.41;;;5.40;100.00
43364;BME280;40636;52.424;-1.948;2023-02-10T11:04:45;101834.56;;;5.40;100.00
43364;BME280;40636;52.424;-1.948;2023-02-10T11:07:19;101822.31;;;5.44;100.00
43364;BME280;40636;52.424;-1.948;2023-02-10T11:09:52;101830.66;;;5.34;100.00
43364;BME280;40636;52.424;-1.948;2023-02-10T11:12:26;101828.25;;;5.31;100.00
43364;BME280;40636;52.424;-1.948;2023-02-10T11:14:53;101840.84;;;5.40;100.00
43364;BME280;40636;52.424;-1.948;2023-02-10T11:17:30;101827.94;;;5.42;100.00
43364;BME280;40636;52.424;-1.948;2023-02-10T11:19:59;101826.06;;;5.43;100.00
43364;BME280;40636;52.424;-1.948;2023-02-10T11:22:27;101823.84;;;5.46;100.00
43364;BME280;40636;52.424;-1.948;2023-02-10T11:24:59;101811.41;;;5.60;100.00
43364;BME280;40636;52.424;-1.948;2023-02-10T11:27:26;101808.69;;;5.60;100.00
43364;BME280;40636;52.424;-1.948;2023-02-10T11:29:55;101801.00;;;5.72;100.00
43364;BME280;40636;52.424;-1.948;2023-02-10T11:32:28;101790.47;;;5.77;100.00
43364;BME280;40636;52.424;-1.948;2023-02-10T11:34:58;101786.53;;;5.79;100.00
43364;BME280;40636;52.424;-1.948;2023-02-10T11:37:29;101793.84;;;5.87;100.00
43364;BME280;40636;52.424;-1.948;2023-02-10T11:39:59;101792.81;;;5.96;100.00
43364;BME280;40636;52.424;-1.948;2023-02-10T11:42:32;101789.72;;;5.99;100.00
43364;BME280;40636;52.424;-1.948;2023-02-10T11:45:24;101780.69;;;5.99;100.00
43364;BME280;40636;52.424;-1.948;2023-02-10T11:48:27;101791.91;;;6.04;100.00
43364;BME280;40636;52.424;-1.948;2023-02-10T11:51:13;101780.84;;;6.14;100.00
43364;BME280;40636;52.424;-1.948;2023-02-10T11:53:42;101773.63;;;6.21;100.00
43364;BME280;40636;52.424;-1.948;2023-02-10T12:07:00;101780.50;;;6.48;100.00
43364;BME280;40636;52.424;-1.948;2023-02-10T12:17:33;101777.50;;;6.66;100.00
43364;BME280;40636;52.424;-1.948;2023-02-10T12:34:14;101759.94;;;6.68;100.00
43364;BME280;40636;52.424;-1.948;2023-02-10T12:43:07;101748.88;;;6.84;100.00
43364;BME280;40636;52.424;-1.948;2023-02-10T12:54:09;101740.28;;;6.96;100.00
43364;BME280;40636;52.424;-1.948;2023-02-10T12:56:43;101736.72;;;6.95;100.00
43364;BME280;40636;52.424;-1.948;2023-02-10T12:59:32;101738.91;;;7.00;100.00
43364;BME280;40636;52.424;-1.948;2023-02-10T13:02:13;101745.34;;;6.99;100.00
43364;BME280;40636;52.424;-1.948;2023-02-10T13:04:44;101747.19;;;7.06;100.00
43364;BME280;40636;52.424;-1.948;2023-02-10T13:07:39;101734.38;;;7.07;100.00
43364;BME280;40636;52.424;-1.948;2023-02-10T13:12:53;101729.47;;;7.02;100.00
43364;BME280;40636;52.424;-1.948;2023-02-10T13:15:28;101730.50;;;7.01;100.00
43364;BME280;40636;52.424;-1.948;2023-02-10T13:17:56;101730.06;;;7.12;100.00
43364;BME280;40636;52.424;-1.948;2023-02-10T13:26:17;101716.72;;;7.18;100.00
43364;BME280;40636;52.424;-1.948;2023-02-10T13:29:12;101717.03;;;7.23;100.00
43364;BME280;40636;52.424;-1.948;2023-02-10T13:32:05;101713.53;;;7.29;100.00
43364;BME280;40636;52.424;-1.948;2023-02-10T13:34:47;101717.41;;;7.34;100.00
43364;BME280;40636;52.424;-1.948;2023-02-10T13:37:21;101718.94;;;7.37;100.00
43364;BME280;40636;52.424;-1.948;2023-02-10T13:40:00;101705.34;;;7.44;100.00
43364;BME280;40636;52.424;-1.948;2023-02-10T13:42:34;101710.47;;;7.47;100.00
43364;BME280;40636;52.424;-1.948;2023-02-10T13:45:06;101711.59;;;7.52;100.00
43364;BME280;40636;52.424;-1.948;2023-02-10T13:52:56;101709.41;;;7.62;100.00
43364;BME280;40636;52.424;-1.948;2023-02-10T13:57:57;101709.81;;;7.59;100.00
43364;BME280;40636;52.424;-1.948;2023-02-10T14:00:27;101709.81;;;7.59;100.00
43364;BME280;40636;52.424;-1.948;2023-02-10T14:06:03;101709.53;;;7.54;100.00
43364;BME280;40636;52.424;-1.948;2023-02-10T14:08:42;101702.53;;;7.52;100.00
43364;BME280;40636;52.424;-1.948;2023-02-10T14:11:43;101703.88;;;7.56;100.00
43364;BME280;40636;52.424;-1.948;2023-02-10T14:14:36;101701.34;;;7.54;100.00
43364;BME280;40636;52.424;-1.948;2023-02-10T14:17:24;101697.56;;;7.55;100.00
43364;BME280;40636;52.424;-1.948;2023-02-10T14:19:57;101693.31;;;7.53;100.00
43364;BME280;40636;52.424;-1.948;2023-02-10T14:22:32;101694.56;;;7.50;100.00
43364;BME280;40636;52.424;-1.948;2023-02-10T14:25:16;101694.56;;;7.50;100.00
43364;BME280;40636;52.424;-1.948;2023-02-10T14:27:50;101687.00;;;7.52;100.00
43364;BME280;40636;52.424;-1.948;2023-02-10T14:30:39;101694.16;;;7.53;100.00
43364;BME280;40636;52.424;-1.948;2023-02-10T14:33:26;101696.72;;;7.55;100.00
43364;BME280;40636;52.424;-1.948;2023-02-10T14:35:56;101691.41;;;7.53;100.00
43364;BME280;40636;52.424;-1.948;2023-02-10T14:38:29;101691.41;;;7.53;100.00
43364;BME280;40636;52.424;-1.948;2023-02-10T14:40:58;101694.16;;;7.53;100.00
43364;BME280;40636;52.424;-1.948;2023-02-10T14:43:40;101684.53;;;7.57;100.00